Time;durP1;ratioP1;P1;durP2;ratioP2;P2;SDS_P1;SDS_P2;PMS_P1;PMS_P2;Temp;Humidity;BMP_temperature;BMP_pressure;BME280_temperature;BME280_humidity;BME280_pressure;Samples;Min_cycle;Max_cycle;Signal;HPM_P1;HPM_P2
2021/11/17 02:26:53;;;;;;;17.48;8.85;;;;;;;5.98;77.40;100363.28;4954288;29;20038;-68
2021/11/17 02:29:40;;;;;;;20.52;11.10;;;;;;;5.94;77.18;100357.25;4964069;29;20043;-68
2021/11/17 02:32:30;;;;;;;16.48;9.10;;;;;;;6.00;76.83;100361.59;4967184;29;20035;-68
2021/11/17 02:35:27;;;;;;;18.73;9.57;;;;;;;5.98;76.14;100358.13;4966879;29;20114;-67
2021/11/17 02:38:30;;;;;;;18.80;10.82;;;;;;;6.02;76.29;100353.03;4966903;28;20135;-68
2021/11/17 02:41:16;;;;;;;18.80;11.18;;;;;;;5.99;75.75;100347.84;4966638;29;20034;-69
2021/11/17 02:44:13;;;;;;;20.30;10.10;;;;;;;5.98;75.84;100348.69;4966901;29;20146;-66
2021/11/17 02:46:38;;;;;;;18.20;9.75;;;;;;;5.98;75.76;100337.50;4966503;29;20031;-67
2021/11/17 02:49:29;;;;;;;18.92;8.55;;;;;;;5.98;75.37;100338.38;4965248;29;20042;-67
2021/11/17 02:52:00;;;;;;;23.30;11.00;;;;;;;5.94;75.06;100347.78;4965584;29;20047;-67
2021/11/17 02:54:38;;;;;;;12.90;7.75;;;;;;;5.95;74.93;100328.94;4965578;29;20077;-66
2021/11/17 02:57:19;;;;;;;17.38;9.98;;;;;;;6.01;74.89;100333.25;4964432;29;20054;-67
2021/11/17 03:00:22;;;;;;;15.77;8.07;;;;;;;6.01;74.51;100337.53;4966249;29;20027;-68
2021/11/17 03:03:02;;;;;;;18.50;9.65;;;;;;;6.02;74.06;100323.81;4966452;29;20027;-67
2021/11/17 03:05:49;;;;;;;18.88;10.02;;;;;;;6.02;73.78;100328.97;4966274;29;20099;-67
2021/11/17 03:08:26;;;;;;;22.63;10.05;;;;;;;6.01;74.00;100317.78;4965021;29;20095;-67
2021/11/17 03:11:16;;;;;;;18.10;11.32;;;;;;;6.04;74.13;100311.78;4966316;29;20042;-67
2021/11/17 03:14:06;;;;;;;22.27;11.45;;;;;;;6.02;74.28;100303.22;4964859;29;20118;-67
2021/11/17 03:16:47;;;;;;;16.58;9.55;;;;;;;6.03;74.55;100286.88;4965779;29;20054;-67
2021/11/17 03:19:47;;;;;;;18.90;10.10;;;;;;;6.04;74.26;100284.34;4964867;29;20090;-68
2021/11/17 03:22:54;;;;;;;18.73;11.45;;;;;;;6.04;74.23;100286.03;4949176;29;20019;-67
2021/11/17 03:25:19;;;;;;;19.38;10.40;;;;;;;6.06;74.66;100274.94;4953867;29;20039;-67
2021/11/17 03:27:54;;;;;;;19.48;9.18;;;;;;;6.06;74.39;100284.38;4965010;29;20023;-67
2021/11/17 03:30:38;;;;;;;18.35;11.13;;;;;;;6.04;74.47;100278.28;4964762;29;20031;-67
2021/11/17 03:33:32;;;;;;;21.88;10.93;;;;;;;6.11;74.18;100272.38;4965688;29;20035;-66
2021/11/17 03:36:36;;;;;;;19.10;11.18;;;;;;;6.03;74.58;100269.72;4965688;29;20031;-68
2021/11/17 03:39:26;;;;;;;20.58;10.68;;;;;;;6.00;74.63;100267.13;4905909;29;20112;-67
2021/11/17 03:41:58;;;;;;;20.13;11.35;;;;;;;6.02;74.75;100252.50;4905991;29;20040;-68
2021/11/17 03:44:49;;;;;;;18.42;11.38;;;;;;;6.04;74.89;100266.31;4905842;29;20044;-67
2021/11/17 03:47:42;;;;;;;22.40;11.98;;;;;;;6.02;74.88;100249.09;4905905;29;20041;-67
2021/11/17 03:50:30;;;;;;;20.88;11.48;;;;;;;6.03;75.08;100249.09;4905356;29;20104;-66
2021/11/17 03:53:11;;;;;;;22.20;12.07;;;;;;;6.01;75.11;100255.06;4905661;29;20089;-67
2021/11/17 03:56:08;;;;;;;22.48;12.80;;;;;;;6.02;74.96;100243.94;4905486;29;20032;-67
2021/11/17 03:58:49;;;;;;;18.73;12.23;;;;;;;6.04;75.15;100248.28;4905400;29;20040;-66
2021/11/17 04:01:42;;;;;;;20.67;12.48;;;;;;;6.05;75.26;100252.56;4904987;29;20092;-67
2021/11/17 04:04:26;;;;;;;25.15;12.95;;;;;;;6.09;75.00;100244.88;4904383;29;20036;-66
2021/11/17 04:07:20;;;;;;;17.08;9.07;;;;;;;6.06;75.12;100237.97;4904267;29;20138;-67
2021/11/17 04:10:00;;;;;;;28.05;13.25;;;;;;;6.02;75.32;100236.19;4933106;29;20046;-67
2021/11/17 04:12:47;;;;;;;25.00;13.07;;;;;;;6.04;75.47;100237.06;4965264;29;20019;-67
2021/11/17 04:15:28;;;;;;;21.63;13.27;;;;;;;6.07;75.24;100234.56;4963363;29;20119;-67
2021/11/17 04:18:12;;;;;;;26.02;14.15;;;;;;;6.07;75.25;100232.81;4965090;29;20071;-67
2021/11/17 04:20:56;;;;;;;28.73;12.90;;;;;;;5.99;75.48;100228.44;4947961;29;20396;-68
2021/11/17 04:23:25;;;;;;;25.02;12.68;;;;;;;5.99;75.48;100233.59;4949129;29;20019;-68
2021/11/17 04:26:32;;;;;;;26.17;12.52;;;;;;;6.02;75.34;100231.03;4964690;29;20031;-67
2021/11/17 04:29:21;;;;;;;22.73;13.10;;;;;;;5.95;75.27;100225.84;4963544;28;20350;-67
2021/11/17 04:32:23;;;;;;;23.45;12.32;;;;;;;5.94;75.44;100231.00;4964873;29;20122;-68
2021/11/17 04:35:05;;;;;;;23.33;13.48;;;;;;;5.93;75.43;100217.22;4979804;28;20062;-68
2021/11/17 04:37:50;;;;;;;26.65;11.85;;;;;;;5.94;75.21;100218.94;4947714;29;20035;-68
2021/11/17 04:40:30;;;;;;;24.30;12.25;;;;;;;5.96;75.19;100213.81;4964793;29;20019;-68
2021/11/17 04:43:10;;;;;;;23.63;12.05;;;;;;;5.88;75.36;100208.59;4964898;29;20106;-67
2021/11/17 04:45:53;;;;;;;22.23;10.98;;;;;;;5.83;75.63;100210.31;4963414;29;20483;-68
2021/11/17 04:48:55;;;;;;;25.35;12.00;;;;;;;5.79;76.16;100213.69;4947965;29;20031;-67
2021/11/17 04:51:38;;;;;;;23.75;12.32;;;;;;;5.86;75.90;100200.00;4949823;29;20089;-67
2021/11/17 04:54:25;;;;;;;25.15;12.43;;;;;;;5.90;75.71;100194.03;4964777;29;20028;-67
2021/11/17 04:57:08;;;;;;;28.77;13.82;;;;;;;5.85;75.48;100177.66;4964505;29;20046;-67
2021/11/17 05:00:03;;;;;;;25.92;13.20;;;;;;;5.78;76.05;100189.63;4964661;29;20031;-67
2021/11/17 05:02:57;;;;;;;25.63;12.98;;;;;;;5.79;76.22;100190.50;4966193;28;20078;-67
2021/11/17 05:05:48;;;;;;;27.52;13.05;;;;;;;5.76;76.55;100186.19;4951481;29;20105;-72
2021/11/17 05:08:41;;;;;;;28.40;13.13;;;;;;;5.79;76.87;100193.06;4983104;28;20023;-70
2021/11/17 05:11:15;;;;;;;27.58;12.02;;;;;;;5.81;76.96;100196.53;4950874;29;20027;-69
2021/11/17 05:13:43;;;;;;;30.60;12.98;;;;;;;5.86;76.81;100187.13;4967981;29;20034;-68
2021/11/17 05:16:27;;;;;;;24.33;12.88;;;;;;;5.90;76.92;100177.69;4967859;29;20070;-69
2021/11/17 05:19:17;;;;;;;26.73;13.25;;;;;;;5.90;76.68;100159.66;4968146;29;20042;-69
2021/11/17 05:22:27;;;;;;;31.85;13.60;;;;;;;5.88;76.81;100159.66;4968112;29;20054;-69
2021/11/17 05:25:17;;;;;;;23.33;11.27;;;;;;;5.96;76.73;100146.81;4960979;29;20031;-70
2021/11/17 05:27:48;;;;;;;30.60;13.07;;;;;;;5.97;76.46;100142.53;4967891;29;20074;-69
2021/11/17 05:30:23;;;;;;;32.20;13.43;;;;;;;5.95;76.59;100130.50;4968020;29;20027;-70
2021/11/17 05:33:07;;;;;;;24.75;11.98;;;;;;;5.93;76.64;100128.75;4950678;29;20066;-69
2021/11/17 05:35:51;;;;;;;26.65;11.63;;;;;;;5.97;76.78;100125.34;4950760;29;20086;-69
2021/11/17 05:38:19;;;;;;;22.67;9.95;;;;;;;6.00;76.76;100127.09;4966330;29;20087;-69
2021/11/17 05:40:50;;;;;;;17.67;7.95;;;;;;;5.99;77.26;100120.22;4967729;29;20055;-69
2021/11/17 05:43:34;;;;;;;16.98;7.78;;;;;;;6.01;77.33;100116.78;4967416;29;20047;-69
2021/11/17 05:46:28;;;;;;;18.02;8.27;;;;;;;6.05;77.36;100115.13;4966200;29;20386;-69
2021/11/17 05:49:16;;;;;;;19.48;8.85;;;;;;;6.09;77.48;100113.44;4954831;29;20443;-68
2021/11/17 05:51:59;;;;;;;14.13;6.72;;;;;;;6.11;77.67;100117.72;4967863;29;20023;-68
2021/11/17 05:54:54;;;;;;;18.45;8.52;;;;;;;6.18;77.64;100114.31;4965848;29;20090;-69
2021/11/17 05:57:38;;;;;;;18.48;8.23;;;;;;;6.21;77.51;100113.50;4961958;29;20035;-69
2021/11/17 06:00:29;;;;;;;15.57;6.63;;;;;;;6.26;77.51;100098.03;4967565;29;20045;-68
2021/11/17 06:03:16;;;;;;;21.85;8.38;;;;;;;6.25;77.59;100104.91;4982339;28;20054;-69
2021/11/17 06:05:41;;;;;;;16.33;6.70;;;;;;;6.25;78.07;100098.88;4967350;29;20031;-68
2021/11/17 06:08:06;;;;;;;29.10;10.00;;;;;;;6.28;77.88;100099.75;4967428;29;20103;-67
2021/11/17 06:10:54;;;;;;;23.07;10.37;;;;;;;6.29;77.94;100098.91;4967420;29;20312;-68
2021/11/17 06:13:21;;;;;;;16.30;7.60;;;;;;;6.32;78.14;100098.94;4966724;28;20281;-68
2021/11/17 06:15:47;;;;;;;19.88;9.50;;;;;;;6.32;78.37;100095.50;4966659;29;20023;-67
2021/11/17 06:18:16;;;;;;;23.20;9.65;;;;;;;6.40;78.20;100092.94;4949718;29;20383;-68
2021/11/17 06:20:43;;;;;;;20.50;9.40;;;;;;;6.39;78.26;100092.06;4949835;29;20090;-67
2021/11/17 06:23:16;;;;;;;18.70;8.90;;;;;;;6.39;77.99;100089.50;4966625;29;20575;-68
2021/11/17 06:25:42;;;;;;;19.00;8.98;;;;;;;6.40;78.34;100095.53;4949223;29;20055;-68
2021/11/17 06:28:08;;;;;;;18.92;9.00;;;;;;;6.43;78.33;100092.94;4965517;29;20031;-68
2021/11/17 06:30:39;;;;;;;13.10;6.38;;;;;;;6.41;78.34;100080.06;4966643;29;20035;-68
2021/11/17 06:33:06;;;;;;;16.48;8.57;;;;;;;6.39;78.77;100094.66;4966678;29;20448;-69
2021/11/17 06:35:35;;;;;;;24.38;9.85;;;;;;;6.38;78.47;100087.78;4966359;29;20035;-68
2021/11/17 06:38:00;;;;;;;21.63;9.50;;;;;;;6.44;78.75;100090.38;4965711;28;20110;-69
2021/11/17 06:40:26;;;;;;;21.05;9.35;;;;;;;6.48;78.67;100090.38;4966285;29;20437;-68
2021/11/17 06:42:54;;;;;;;16.63;7.95;;;;;;;6.48;78.73;100082.66;4966293;29;20066;-67
2021/11/17 06:45:41;;;;;;;19.77;8.52;;;;;;;6.53;78.68;100078.38;4965840;29;20051;-69
2021/11/17 06:48:08;;;;;;;22.30;9.15;;;;;;;6.53;78.76;100066.31;4966386;29;20101;-68
2021/11/17 06:50:34;;;;;;;15.20;7.88;;;;;;;6.55;78.83;100062.03;4966286;29;20035;-68
2021/11/17 06:53:00;;;;;;;18.42;7.75;;;;;;;6.59;78.66;100054.31;4966173;29;20027;-69
2021/11/17 06:55:26;;;;;;;16.50;8.68;;;;;;;6.59;78.76;100057.75;4965926;29;20496;-69
2021/11/17 06:57:51;;;;;;;19.80;8.57;;;;;;;6.56;78.90;100052.59;4948830;29;20034;-68
2021/11/17 07:00:20;;;;;;;18.30;8.60;;;;;;;6.58;79.14;100053.47;4964579;29;20029;-69
2021/11/17 07:02:46;;;;;;;18.17;8.40;;;;;;;6.56;79.21;100057.75;4965959;29;20027;-68
2021/11/17 07:05:11;;;;;;;18.88;8.05;;;;;;;6.56;79.33;100037.13;4965443;29;20365;-67
2021/11/17 07:07:38;;;;;;;20.05;9.65;;;;;;;6.60;79.66;100041.41;4966074;29;20062;-67
2021/11/17 07:10:08;;;;;;;27.48;9.27;;;;;;;6.71;79.70;100050.91;4966190;29;20150;-67
2021/11/17 07:12:33;;;;;;;21.33;9.80;;;;;;;6.73;79.78;100046.59;4966145;29;20147;-68
2021/11/17 07:14:59;;;;;;;18.52;8.57;;;;;;;6.69;80.22;100035.41;4965606;29;20043;-69
2021/11/17 07:17:24;;;;;;;23.05;9.18;;;;;;;6.77;80.50;100038.00;4965741;29;20058;-69
2021/11/17 07:19:50;;;;;;;22.52;8.95;;;;;;;6.80;80.25;100041.47;4965825;29;20023;-69
2021/11/17 07:22:16;;;;;;;21.60;8.57;;;;;;;6.82;80.70;100038.88;4965725;29;20034;-67
2021/11/17 07:24:42;;;;;;;23.08;9.80;;;;;;;6.86;80.78;100043.19;4964896;28;20062;-67
2021/11/17 07:27:12;;;;;;;21.55;8.88;;;;;;;6.88;80.52;100036.31;4965004;29;20055;-67
2021/11/17 07:29:38;;;;;;;22.77;8.75;;;;;;;6.85;81.01;100044.03;4963971;29;20027;-67
2021/11/17 07:32:04;;;;;;;19.67;9.63;;;;;;;6.86;81.13;100034.56;4964575;29;20035;-67
2021/11/17 07:34:30;;;;;;;24.58;8.73;;;;;;;6.91;81.48;100038.88;4964995;29;20027;-67
2021/11/17 07:36:55;;;;;;;26.58;9.93;;;;;;;6.96;81.45;100038.00;4964489;29;20106;-69
2021/11/17 07:39:20;;;;;;;16.55;7.82;;;;;;;6.98;81.31;100024.25;4965087;29;20027;-67
2021/11/17 07:41:49;;;;;;;20.55;8.50;;;;;;;7.01;81.18;100029.41;4948024;29;20480;-68
2021/11/17 07:44:16;;;;;;;26.17;9.18;;;;;;;7.04;81.30;100032.03;4965228;29;20440;-70
2021/11/17 07:46:47;;;;;;;20.45;9.95;;;;;;;7.08;81.25;100038.00;4965483;29;20538;-68
2021/11/17 07:49:14;;;;;;;24.13;8.43;;;;;;;7.10;81.22;100028.56;4965464;28;20035;-69
2021/11/17 07:51:41;;;;;;;19.80;9.38;;;;;;;7.09;81.23;100026.84;4965502;29;20585;-69
2021/11/17 07:54:07;;;;;;;23.02;9.05;;;;;;;7.13;81.18;100030.28;4965429;29;20468;-68
2021/11/17 07:56:35;;;;;;;19.83;8.43;;;;;;;7.04;81.71;100026.84;4965377;28;20027;-69
2021/11/17 07:59:01;;;;;;;21.75;9.65;;;;;;;7.02;81.73;100025.13;4965283;29;20019;-71
2021/11/17 08:01:28;;;;;;;25.80;9.55;;;;;;;7.00;81.86;100022.53;4965037;29;20030;-71
2021/11/17 08:03:54;;;;;;;19.75;6.95;;;;;;;6.92;82.43;100019.94;4965331;29;20531;-71
2021/11/17 08:06:23;;;;;;;18.52;7.72;;;;;;;6.85;82.79;100013.09;4965206;29;20054;-73
2021/11/17 08:08:49;;;;;;;23.40;7.80;;;;;;;6.83;83.33;100027.69;4965257;29;20019;-72
2021/11/17 08:11:15;;;;;;;24.83;9.35;;;;;;;6.86;82.73;100021.66;4965332;29;20052;-69
2021/11/17 08:13:41;;;;;;;18.13;7.43;;;;;;;6.80;83.33;100022.53;4965214;29;20043;-68
2021/11/17 08:16:07;;;;;;;31.25;10.07;;;;;;;6.80;83.22;100013.09;4979601;28;20054;-70
2021/11/17 08:18:34;;;;;;;23.95;10.48;;;;;;;6.76;83.56;100018.22;4965234;29;20115;-69
2021/11/17 08:21:03;;;;;;;18.63;9.32;;;;;;;6.72;83.84;100014.78;4964767;29;20472;-70
2021/11/17 08:23:29;;;;;;;27.20;10.80;;;;;;;6.68;84.34;100021.66;4964201;29;20027;-70
2021/11/17 08:25:54;;;;;;;33.95;12.05;;;;;;;6.65;84.12;99989.81;4964304;29;20360;-70
2021/11/17 08:28:20;;;;;;;24.52;10.27;;;;;;;6.67;84.37;100004.47;4979198;28;20054;-70
2021/11/17 08:30:46;;;;;;;24.35;9.52;;;;;;;6.68;84.08;100000.16;4963845;29;20031;-71
2021/11/17 08:33:13;;;;;;;31.35;11.18;;;;;;;6.69;84.20;99997.56;4963529;29;20027;-70
2021/11/17 08:35:40;;;;;;;23.35;9.27;;;;;;;6.69;84.47;100002.72;4965008;28;20051;-69
2021/11/17 08:38:09;;;;;;;28.98;9.45;;;;;;;6.65;84.52;100008.75;4970855;29;20060;-70
2021/11/17 08:40:40;;;;;;;29.88;8.73;;;;;;;6.63;85.05;100001.88;4970982;28;20033;-70
2021/11/17 08:43:06;;;;;;;22.48;8.88;;;;;;;6.60;85.40;99992.41;4971116;28;20452;-69
2021/11/17 08:45:32;;;;;;;34.47;10.50;;;;;;;6.53;85.68;99975.22;4970776;28;20031;-69
2021/11/17 08:47:58;;;;;;;28.77;10.93;;;;;;;6.65;85.46;99977.78;4971410;29;20046;-69
2021/11/17 08:50:26;;;;;;;24.67;9.55;;;;;;;6.66;85.51;99974.34;4971175;28;20027;-69
2021/11/17 08:52:53;;;;;;;36.38;10.13;;;;;;;6.62;85.74;99967.47;4971079;28;20480;-70
2021/11/17 08:55:21;;;;;;;30.42;11.43;;;;;;;6.62;86.07;99972.63;4971096;29;20037;-65
2021/11/17 08:57:47;;;;;;;33.08;12.73;;;;;;;6.69;85.86;99969.19;4970767;29;20023;-67
2021/11/17 09:00:16;;;;;;;29.48;10.88;;;;;;;6.65;86.15;99962.31;4970982;28;20086;-67
2021/11/17 09:02:43;;;;;;;29.85;9.93;;;;;;;6.63;86.70;99951.13;4971073;29;20034;-68
2021/11/17 09:05:16;;;;;;;33.83;11.55;;;;;;;6.68;86.32;99956.28;4971046;29;20015;-69
2021/11/17 09:07:43;;;;;;;38.05;12.82;;;;;;;6.71;86.45;99958.03;4953543;29;20038;-68
2021/11/17 09:10:11;;;;;;;35.67;13.38;;;;;;;6.66;86.55;99951.13;4953775;29;20023;-68
2021/11/17 09:12:37;;;;;;;33.17;11.98;;;;;;;6.71;86.46;99950.28;4971032;29;20034;-67
2021/11/17 09:15:03;;;;;;;33.53;11.38;;;;;;;6.67;86.81;99955.44;4970550;28;20020;-68
2021/11/17 09:17:28;;;;;;;33.05;11.23;;;;;;;6.72;86.81;99946.84;4970540;29;20139;-69
2021/11/17 09:19:54;;;;;;;41.03;13.30;;;;;;;6.74;86.80;99938.22;4970852;29;20380;-70
2021/11/17 09:22:21;;;;;;;40.35;11.60;;;;;;;6.70;86.69;99931.38;4970929;28;20031;-70
2021/11/17 09:24:46;;;;;;;38.75;12.27;;;;;;;6.78;86.54;99949.41;4971020;29;20035;-69
2021/11/17 09:27:15;;;;;;;32.47;10.73;;;;;;;6.75;86.87;99945.13;4970720;29;20015;-69
2021/11/17 09:29:40;;;;;;;36.88;11.73;;;;;;;6.74;87.01;99940.81;4970864;29;20027;-69
2021/11/17 09:32:07;;;;;;;34.22;12.35;;;;;;;6.77;86.98;99932.22;4970928;28;20035;-69
2021/11/17 09:34:32;;;;;;;35.50;12.13;;;;;;;6.77;86.80;99932.22;4970769;28;20023;-70
2021/11/17 09:36:58;;;;;;;33.00;10.95;;;;;;;6.74;86.83;99922.75;4970728;28;20027;-70
2021/11/17 09:39:23;;;;;;;21.40;6.47;;;;;;;6.69;87.17;99930.50;4970748;28;20027;-69
2021/11/17 09:41:51;;;;;;;32.60;10.68;;;;;;;6.64;87.83;99921.91;4970635;29;20038;-68
2021/11/17 09:44:29;;;;;;;29.30;10.60;;;;;;;6.63;88.23;99930.50;4971124;28;20102;-69
2021/11/17 09:46:58;;;;;;;28.50;8.77;;;;;;;6.62;88.90;99925.34;4970502;28;20027;-69
2021/11/17 09:49:29;;;;;;;34.80;9.18;;;;;;;6.59;89.34;99928.78;4967111;29;20015;-71
2021/11/17 09:51:58;;;;;;;29.45;9.32;;;;;;;6.63;89.45;99921.91;4967985;29;20031;-72
2021/11/17 09:54:32;;;;;;;29.10;8.85;;;;;;;6.71;89.38;99927.06;4967785;29;20079;-72
2021/11/17 09:57:16;;;;;;;26.23;7.65;;;;;;;6.62;89.95;99923.63;4967794;29;20022;-71
2021/11/17 10:00:01;;;;;;;18.83;6.97;;;;;;;6.66;90.19;99921.91;4967770;29;20031;-74
2021/11/17 10:02:39;;;;;;;22.48;7.30;;;;;;;6.63;90.78;99922.75;4966424;29;20023;-74
2021/11/17 10:05:11;;;;;;;28.48;7.63;;;;;;;6.66;91.08;99919.34;4966491;29;20019;-75
2021/11/17 10:08:12;;;;;;;20.13;7.50;;;;;;;6.69;91.02;99920.16;4967579;29;20028;-73
2021/11/17 10:13:35;;;;;;;26.38;8.18;;;;;;;6.71;91.35;99911.59;4967682;29;20043;-73
2021/11/17 10:16:02;;;;;;;24.38;7.28;;;;;;;6.66;91.56;99907.28;4967169;29;20079;-72
2021/11/17 10:18:39;;;;;;;21.77;7.05;;;;;;;6.68;91.62;99915.88;4967645;29;20031;-72
2021/11/17 10:21:25;;;;;;;21.02;7.47;;;;;;;6.66;92.05;99903.84;4967366;29;20102;-72
2021/11/17 10:24:10;;;;;;;25.33;7.22;;;;;;;6.64;92.25;99914.19;4956762;29;20094;-72
2021/11/17 10:27:06;;;;;;;13.85;4.20;;;;;;;6.68;92.35;99902.13;4967047;29;20070;-72
2021/11/17 10:29:57;;;;;;;25.27;7.35;;;;;;;6.64;92.94;99897.84;4957399;29;20515;-73
2021/11/17 10:32:33;;;;;;;21.23;5.32;;;;;;;6.68;92.80;99884.94;4949695;29;20411;-72
2021/11/17 10:35:04;;;;;;;17.85;6.15;;;;;;;6.69;93.06;99888.38;4966984;29;20055;-73
2021/11/17 10:37:35;;;;;;;14.15;5.00;;;;;;;6.69;93.02;99896.13;4967027;29;20031;-73
2021/11/17 10:40:16;;;;;;;16.02;5.82;;;;;;;6.74;93.70;99880.63;4966801;29;20089;-72
2021/11/17 10:42:44;;;;;;;14.43;3.45;;;;;;;6.71;93.63;99875.47;4966927;29;20035;-73
2021/11/17 10:45:10;;;;;;;17.40;4.53;;;;;;;6.81;93.72;99880.63;4966766;29;20035;-73
2021/11/17 10:47:47;;;;;;;21.50;5.55;;;;;;;6.83;93.91;99865.13;4966956;29;20027;-72
2021/11/17 10:50:18;;;;;;;17.27;5.75;;;;;;;6.88;93.82;99871.16;4966883;29;20031;-74
2021/11/17 10:52:56;;;;;;;20.63;6.07;;;;;;;6.92;93.91;99854.78;4966677;29;20062;-72
2021/11/17 10:55:39;;;;;;;14.93;4.75;;;;;;;6.90;94.29;99853.09;4966878;29;20111;-74
2021/11/17 10:58:11;;;;;;;22.25;4.85;;;;;;;6.94;94.32;99858.22;4966581;29;20036;-74
2021/11/17 11:00:39;;;;;;;;;;;;;;;7.00;94.64;99869.38;4965597;28;20055;-73
2021/11/17 11:03:07;;;;;;;22.00;5.93;;;;;;;7.01;94.56;99865.97;4966548;29;19914;-73
2021/11/17 11:05:38;;;;;;;15.70;4.32;;;;;;;7.03;94.75;99846.16;4966457;29;20028;-72
2021/11/17 11:08:21;;;;;;;8.77;3.70;;;;;;;7.09;94.89;99855.63;4949321;29;20404;-72
2021/11/17 11:10:49;;;;;;;21.20;7.47;;;;;;;7.02;95.35;99847.03;4966561;29;20162;-72
2021/11/17 11:13:44;;;;;;;25.17;6.88;;;;;;;7.06;95.62;99847.00;4966347;29;20038;-72
2021/11/17 11:16:21;;;;;;;27.35;5.85;;;;;;;7.12;95.73;99848.72;4965897;29;20080;-74
2021/11/17 11:19:12;;;;;;;32.70;7.68;;;;;;;7.15;95.65;99853.88;4966205;29;20034;-74
2021/11/17 11:21:40;;;;;;;35.33;7.40;;;;;;;7.16;95.56;99860.75;4958865;29;20040;-72
2021/11/17 11:24:25;;;;;;;35.65;9.20;;;;;;;7.16;95.64;99836.66;4964705;29;20051;-71
2021/11/17 11:27:00;;;;;;;30.95;7.78;;;;;;;7.14;95.61;99836.66;4965382;29;20066;-71
2021/11/17 11:29:38;;;;;;;40.03;9.68;;;;;;;7.15;95.45;99842.69;4965088;29;20103;-73
2021/11/17 11:32:08;;;;;;;32.25;8.80;;;;;;;7.14;95.99;99839.22;4965214;29;20031;-70
2021/11/17 11:35:07;;;;;;;40.72;9.63;;;;;;;7.16;96.01;99832.34;4966008;29;20527;-72
2021/11/17 11:37:32;;;;;;;37.40;9.23;;;;;;;7.19;95.91;99845.25;4966461;28;20722;-71
2021/11/17 11:40:02;;;;;;;30.75;7.25;;;;;;;7.21;95.75;99832.34;4966211;29;20027;-68
2021/11/17 11:42:32;;;;;;;36.55;9.13;;;;;;;7.25;95.79;99828.03;4948868;29;20316;-70
2021/11/17 11:45:40;;;;;;;39.78;9.20;;;;;;;7.23;96.04;99830.63;4965697;29;20023;-69
2021/11/17 11:48:11;;;;;;;46.03;11.68;;;;;;;7.25;96.10;99831.44;4965786;29;20031;-70
2021/11/17 11:50:39;;;;;;;33.90;9.52;;;;;;;7.26;95.91;99832.31;4965872;29;20027;-71
2021/11/17 11:53:12;;;;;;;51.28;11.77;;;;;;;7.28;95.98;99835.75;4965722;29;20031;-69
2021/11/17 11:55:49;;;;;;;39.92;10.13;;;;;;;7.28;96.06;99841.78;4965405;29;20035;-70
2021/11/17 11:58:21;;;;;;;39.15;9.52;;;;;;;7.28;95.85;99831.47;4965502;29;20019;-69
2021/11/17 12:00:59;;;;;;;31.38;8.30;;;;;;;7.29;96.08;99829.72;4965354;29;20101;-69
2021/11/17 12:03:28;;;;;;;41.22;11.32;;;;;;;7.32;96.11;99825.41;4965422;29;20468;-69
2021/11/17 12:06:29;;;;;;;53.67;10.13;;;;;;;7.30;96.12;99819.38;4965226;28;20031;-69
2021/11/17 12:09:17;;;;;;;45.58;11.18;;;;;;;7.36;96.01;99826.25;4962124;29;20070;-69
2021/11/17 12:11:59;;;;;;;42.50;11.40;;;;;;;7.39;95.97;99815.91;4965015;28;20500;-69
2021/11/17 12:14:43;;;;;;;41.13;10.95;;;;;;;7.39;95.99;99818.50;4965308;29;20050;-69
2021/11/17 12:17:09;;;;;;;39.35;11.00;;;;;;;7.40;96.01;99814.16;4964958;29;20538;-68
2021/11/17 12:19:42;;;;;;;42.55;10.85;;;;;;;7.44;96.06;99814.13;4965215;29;20046;-69
2021/11/17 12:22:38;;;;;;;46.53;11.18;;;;;;;7.47;95.89;99812.41;4965130;29;20059;-68
2021/11/17 12:25:20;;;;;;;38.65;9.57;;;;;;;7.48;95.98;99816.72;4965172;29;20031;-68
2021/11/17 12:27:47;;;;;;;38.22;8.55;;;;;;;7.51;95.77;99817.56;4964977;29;20037;-68
2021/11/17 12:30:28;;;;;;;42.28;10.20;;;;;;;7.52;95.67;99826.19;4964938;29;20031;-68
2021/11/17 12:32:59;;;;;;;32.40;9.88;;;;;;;7.54;95.82;99824.44;4964983;29;20463;-68
2021/11/17 12:35:35;;;;;;;39.88;9.20;;;;;;;7.56;95.79;99827.88;4964897;29;20027;-68
2021/11/17 12:38:05;;;;;;;21.40;7.57;;;;;;;7.55;95.80;99818.41;4964982;29;20102;-69
2021/11/17 12:40:33;;;;;;;32.70;8.57;;;;;;;7.54;95.82;99817.53;4965112;29;20023;-67
2021/11/17 12:43:03;;;;;;;25.25;7.47;;;;;;;7.54;95.86;99808.97;4964616;29;20074;-69
2021/11/17 12:45:37;;;;;;;30.50;7.20;;;;;;;7.59;95.59;99817.50;4964906;29;20099;-67
2021/11/17 12:48:06;;;;;;;28.40;7.47;;;;;;;7.57;95.82;99814.09;4964814;29;20027;-68
2021/11/17 12:50:43;;;;;;;35.55;7.57;;;;;;;7.54;95.74;99801.22;4964762;29;20049;-69
2021/11/17 12:53:20;;;;;;;29.80;8.23;;;;;;;7.54;95.87;99804.63;4964766;29;20049;-68
2021/11/17 12:55:53;;;;;;;30.38;7.68;;;;;;;7.56;95.75;99805.47;4964654;29;20059;-68
2021/11/17 12:58:25;;;;;;;28.65;8.05;;;;;;;7.59;95.69;99809.75;4964764;29;20027;-68
2021/11/17 13:00:50;;;;;;;;;;;;;;;7.61;95.50;99802.00;4964891;29;20038;-69
2021/11/17 13:03:33;;;;;;;28.95;5.78;;;;;;;7.55;95.59;99798.63;4964587;29;19949;-68
2021/11/17 13:06:19;;;;;;;30.25;6.90;;;;;;;7.60;95.92;99801.16;4964545;29;20035;-67
2021/11/17 13:09:03;;;;;;;30.73;7.78;;;;;;;7.58;95.85;99802.91;4964090;29;20097;-68
2021/11/17 13:11:28;;;;;;;36.15;7.05;;;;;;;7.56;96.04;99794.28;4964827;29;20023;-68
2021/11/17 13:13:58;;;;;;;26.73;7.07;;;;;;;7.65;95.73;99795.97;4964831;29;20031;-68
2021/11/17 13:16:36;;;;;;;23.15;6.13;;;;;;;7.64;95.73;99789.94;4964439;29;20062;-68
2021/11/17 13:19:05;;;;;;;25.77;5.80;;;;;;;7.63;95.82;99785.66;4964734;29;20034;-68
2021/11/17 13:21:39;;;;;;;32.22;7.45;;;;;;;7.67;95.81;99777.00;4964685;29;20028;-68
2021/11/17 13:24:11;;;;;;;28.00;6.82;;;;;;;7.72;95.52;99776.97;4967024;28;20087;-68
2021/11/17 13:26:52;;;;;;;27.50;6.20;;;;;;;7.76;95.49;99782.97;4968188;29;20027;-68
2021/11/17 13:29:45;;;;;;;35.67;6.32;;;;;;;7.73;95.54;99767.50;4968338;29;20078;-68
2021/11/17 13:32:14;;;;;;;35.25;7.00;;;;;;;7.71;95.60;99766.63;4967918;29;20031;-68
2021/11/17 13:34:42;;;;;;;31.65;7.22;;;;;;;7.68;95.74;99763.19;4966707;29;20027;-69
2021/11/17 13:37:40;;;;;;;27.88;4.95;;;;;;;7.74;95.53;99784.69;4967938;29;20031;-69
2021/11/17 13:40:22;;;;;;;22.90;5.30;;;;;;;7.72;95.45;99778.69;4967564;29;20230;-68
2021/11/17 13:42:49;;;;;;;25.33;4.95;;;;;;;7.67;95.00;99782.16;4967905;29;20039;-67
2021/11/17 13:45:18;;;;;;;25.23;5.65;;;;;;;7.68;95.17;99783.03;4967701;29;20027;-68
2021/11/17 13:47:45;;;;;;;21.70;4.07;;;;;;;7.64;94.77;99789.06;4966627;29;20020;-68
2021/11/17 13:50:13;;;;;;;23.95;4.50;;;;;;;7.62;94.40;99793.41;4967613;29;20031;-67
2021/11/17 13:52:42;;;;;;;21.65;3.38;;;;;;;7.60;94.36;99802.88;4950340;29;20112;-67
2021/11/17 13:55:12;;;;;;;23.13;3.42;;;;;;;7.54;94.24;99794.28;4950807;29;20027;-68
2021/11/17 13:57:37;;;;;;;27.13;4.07;;;;;;;7.52;93.45;99801.22;4967699;29;20053;-68
2021/11/17 14:00:09;;;;;;;18.20;3.40;;;;;;;7.49;93.26;99808.94;4967954;29;20451;-68
2021/11/17 14:02:35;;;;;;;24.77;4.50;;;;;;;7.47;92.41;99796.91;4967196;29;20500;-66
2021/11/17 14:05:01;;;;;;;23.35;3.42;;;;;;;7.46;92.36;99800.38;4967715;29;20042;-66
2021/11/17 14:07:27;;;;;;;26.15;4.25;;;;;;;7.43;92.39;99798.66;4967555;29;20032;-67
2021/11/17 14:09:53;;;;;;;24.83;4.05;;;;;;;7.47;91.58;99791.75;4967657;29;20027;-68
2021/11/17 14:12:20;;;;;;;18.48;4.00;;;;;;;7.49;91.71;99796.03;4967676;29;20082;-69
2021/11/17 14:14:46;;;;;;;22.48;3.17;;;;;;;7.46;91.23;99793.47;4967573;29;20081;-69
2021/11/17 14:17:11;;;;;;;22.65;3.65;;;;;;;7.48;90.79;99793.47;4967071;29;20444;-69
2021/11/17 14:19:37;;;;;;;15.05;3.03;;;;;;;7.47;90.42;99795.22;4967360;29;20027;-69
2021/11/17 14:22:03;;;;;;;23.42;2.92;;;;;;;7.57;90.91;99806.34;4967604;29;20107;-68
2021/11/17 14:24:29;;;;;;;20.95;3.55;;;;;;;7.64;90.83;99802.84;4967349;29;20030;-67
2021/11/17 14:26:54;;;;;;;19.92;2.67;;;;;;;7.61;91.14;99807.16;4967461;29;20142;-68
2021/11/17 14:29:43;;;;;;;18.20;2.58;;;;;;;7.65;91.01;99806.31;4967206;29;20023;-66
2021/11/17 14:32:15;;;;;;;19.70;3.50;;;;;;;7.61;91.04;99813.22;4966981;29;20081;-66
2021/11/17 14:34:41;;;;;;;23.55;3.15;;;;;;;7.59;90.54;99814.94;4966171;28;20027;-65